Terminal Aerodrome Forecast
Issued by NWS Newport/Morehead City, NC

Home | Current Version | Previous Version | Graphics & Text | Print | Product List | Glossary On
Versions: 1 2 3 4 5 6 7 8 9 10 11 12 13 14 15
000
FTUS42 KMHX 220522
TAFEWN
TAF
KEWN 220522Z 2206/2306 06005KT P6SM VCSH BKN060
     FM220800 03009KT 5SM -SHRA SCT007 OVC040
      TEMPO 2208/2211 BKN007
     FM221200 02011G21KT P6SM VCSH SCT020 OVC050
     FM221500 01015G25KT P6SM SCT050
     FM222300 03007KT P6SM SKC=

USA.gov is the U.S. government's official web portal to all federal, state and local government web resources and services.